Time;durP1;ratioP1;P1;durP2;ratioP2;P2;SDS_P1;SDS_P2;PMS_P1;PMS_P2;Temp;Humidity;BMP_temperature;BMP_pressure;BME280_temperature;BME280_humidity;BME280_pressure;Samples;Min_cycle;Max_cycle;Signal;HPM_P1;HPM_P2
2023/07/30 00:01:29;;;;;;;13.85;3.05;;;;;;;13.35;100.00;100836.16;4936989;29;20063;-94
2023/07/30 00:03:55;;;;;;;12.17;2.87;;;;;;;13.24;100.00;100813.06;4936354;29;20098;-93
2023/07/30 00:06:20;;;;;;;7.87;2.90;;;;;;;13.33;100.00;100835.63;4936200;29;20027;-93
2023/07/30 00:08:45;;;;;;;5.53;2.90;;;;;;;13.34;100.00;100837.25;4935690;29;20027;-93
2023/07/30 00:11:11;;;;;;;8.80;2.77;;;;;;;13.39;100.00;100839.91;4936142;29;20114;-93
2023/07/30 00:13:36;;;;;;;9.15;3.05;;;;;;;13.39;100.00;100842.59;4958127;29;20031;-93
2023/07/30 00:16:01;;;;;;;11.80;2.77;;;;;;;13.30;100.00;100833.50;4937350;29;20110;-94
2023/07/30 00:18:27;;;;;;;7.47;2.63;;;;;;;13.29;100.00;100830.00;4944628;29;20016;-93
2023/07/30 00:20:52;;;;;;;9.90;2.70;;;;;;;13.31;100.00;100827.06;4951621;29;20074;-94
2023/07/30 00:23:17;;;;;;;8.47;2.60;;;;;;;13.42;100.00;100835.91;4936251;29;20063;-94
2023/07/30 00:25:43;;;;;;;8.67;2.70;;;;;;;13.25;100.00;100823.56;4936105;29;20370;-92
2023/07/30 00:28:08;;;;;;;9.17;2.73;;;;;;;13.11;100.00;100799.16;4935691;29;20035;-93
2023/07/30 00:30:33;;;;;;;7.00;2.60;;;;;;;13.30;100.00;100841.59;4936611;29;20063;-93
2023/07/30 00:32:59;;;;;;;8.27;3.10;;;;;;;13.22;100.00;100823.31;4936268;29;20028;-94
2023/07/30 00:35:24;;;;;;;8.60;2.60;;;;;;;13.27;100.00;100842.13;4935132;29;20067;-93
2023/07/30 00:37:50;;;;;;;11.37;3.10;;;;;;;13.25;100.00;100836.22;4935405;29;20016;-93
2023/07/30 00:40:15;;;;;;;8.07;2.80;;;;;;;13.24;100.00;100834.59;4936473;29;20594;-93
2023/07/30 00:42:40;;;;;;;11.23;3.17;;;;;;;13.22;100.00;100839.44;4935697;29;20152;-93
2023/07/30 00:45:06;;;;;;;8.27;2.90;;;;;;;13.00;100.00;100819.91;4936283;29;20031;-93
2023/07/30 00:47:32;;;;;;;11.70;3.20;;;;;;;12.99;100.00;100820.97;4935109;29;20476;-92
2023/07/30 00:49:58;;;;;;;6.20;2.92;;;;;;;13.09;100.00;100841.66;4934935;29;20038;-94
2023/07/30 00:52:25;;;;;;;9.10;3.33;;;;;;;13.08;100.00;100847.28;4935822;29;20083;-92
2023/07/30 00:54:52;;;;;;;9.40;3.17;;;;;;;13.08;100.00;100850.81;4935812;29;20032;-93
2023/07/30 00:57:19;;;;;;;13.77;3.10;;;;;;;13.00;100.00;100843.28;4934990;29;20287;-94
2023/07/30 00:59:45;;;;;;;9.65;3.30;;;;;;;12.94;100.00;100831.75;4935838;29;20028;-94
2023/07/30 01:02:11;;;;;;;8.52;3.10;;;;;;;13.05;100.00;100854.03;4935258;29;20043;-95
2023/07/30 01:04:37;;;;;;;11.70;3.30;;;;;;;12.98;100.00;100845.44;4935857;29;20059;-94
2023/07/30 01:07:03;;;;;;;11.70;3.10;;;;;;;12.98;100.00;100845.44;4934452;29;20063;-93
2023/07/30 01:09:29;;;;;;;12.10;3.65;;;;;;;12.98;100.00;100859.72;4935909;29;20031;-93
2023/07/30 01:11:55;;;;;;;8.60;3.80;;;;;;;13.06;100.00;100868.28;4935523;29;20027;-95
2023/07/30 01:14:22;;;;;;;12.77;3.30;;;;;;;12.98;100.00;100859.72;4937113;29;20035;-92
2023/07/30 01:16:49;;;;;;;10.77;3.58;;;;;;;12.98;100.00;100856.19;4935734;29;20039;-92
2023/07/30 01:19:14;;;;;;;9.80;3.10;;;;;;;12.99;100.00;100865.88;4937642;29;20065;-93
2023/07/30 01:21:40;;;;;;;9.50;3.17;;;;;;;13.03;100.00;100873.16;4936291;29;20303;-94
2023/07/30 01:24:05;;;;;;;9.83;3.10;;;;;;;13.04;100.00;100882.00;4935656;29;20024;-92
2023/07/30 01:26:37;;;;;;;12.20;3.45;;;;;;;13.06;100.00;100873.66;4935186;29;20043;-93
2023/07/30 01:29:07;;;;;;;7.90;3.00;;;;;;;13.02;100.00;100866.16;4936033;29;20023;-94
2023/07/30 01:31:34;;;;;;;9.20;2.92;;;;;;;13.03;100.00;100880.41;4937986;29;20024;-92
2023/07/30 01:34:03;;;;;;;13.43;2.78;;;;;;;13.00;100.00;100859.41;4956128;29;20267;-93
2023/07/30 01:36:30;;;;;;;10.38;3.00;;;;;;;13.05;100.00;100872.88;4935243;29;20032;-93
2023/07/30 01:38:57;;;;;;;15.10;3.45;;;;;;;13.06;100.00;100874.47;4946351;29;20083;-94
2023/07/30 01:41:24;;;;;;;12.85;3.03;;;;;;;13.02;100.00;100878.78;4947337;29;20038;-94
2023/07/30 01:43:49;;;;;;;12.75;3.40;;;;;;;12.97;100.00;100868.84;4934748;29;20424;-94
2023/07/30 01:46:15;;;;;;;10.97;3.50;;;;;;;13.03;100.00;100881.22;4935734;29;20027;-94
2023/07/30 01:48:40;;;;;;;10.87;3.10;;;;;;;13.09;100.00;100879.31;4936170;29;20031;-94
2023/07/30 01:51:05;;;;;;;11.70;3.03;;;;;;;13.00;100.00;100887.13;4936110;29;20027;-93
2023/07/30 01:53:31;;;;;;;11.63;3.42;;;;;;;13.00;100.00;100881.75;4936225;29;20541;-93
2023/07/30 01:55:56;;;;;;;16.37;3.30;;;;;;;13.00;100.00;100889.00;4935164;29;20039;-94
2023/07/30 01:58:21;;;;;;;15.30;3.40;;;;;;;12.99;100.00;100885.53;4935103;29;20483;-93
2023/07/30 02:00:47;;;;;;;17.83;3.30;;;;;;;12.97;100.00;100881.47;4934886;29;20130;-93
2023/07/30 02:03:12;;;;;;;15.27;3.57;;;;;;;13.01;100.00;100886.06;4935239;29;20619;-94
2023/07/30 02:05:37;;;;;;;14.75;3.35;;;;;;;12.85;100.00;100879.91;4936117;29;20040;-93
2023/07/30 02:08:15;;;;;;;8.50;3.27;;;;;;;12.72;100.00;100872.41;4940201;29;20024;-93
2023/07/30 02:11:05;;;;;;;11.25;3.50;;;;;;;12.93;100.00;100893.88;4941761;29;20042;-93
2023/07/30 02:13:40;;;;;;;9.27;3.45;;;;;;;12.82;100.00;100877.75;4944235;29;20043;-93
2023/07/30 02:16:06;;;;;;;10.87;3.03;;;;;;;12.96;100.00;100902.19;4942077;29;20110;-93
2023/07/30 02:18:31;;;;;;;14.20;3.40;;;;;;;12.75;100.00;100862.97;4944409;29;20367;-93
2023/07/30 02:20:57;;;;;;;13.00;3.40;;;;;;;12.98;100.00;100878.53;4942812;29;20779;-94
2023/07/30 02:23:36;;;;;;;13.23;3.60;;;;;;;12.83;100.00;100851.69;4953389;29;20027;-92
2023/07/30 02:26:01;;;;;;;8.65;2.83;;;;;;;12.93;100.00;100875.06;4953412;29;20035;-91
2023/07/30 02:28:33;;;;;;;15.87;3.50;;;;;;;12.94;100.00;100857.84;4948457;29;20023;-93
2023/07/30 02:30:58;;;;;;;11.25;3.15;;;;;;;13.01;100.00;100859.16;4942574;29;20024;-93
2023/07/30 02:33:23;;;;;;;11.98;3.70;;;;;;;13.13;100.00;100877.69;4943813;29;20563;-94
2023/07/30 02:35:49;;;;;;;9.97;3.73;;;;;;;13.10;100.00;100863.97;4941072;29;20027;-94
2023/07/30 02:38:14;;;;;;;11.37;4.03;;;;;;;13.02;100.00;100849.19;4940628;28;20051;-94
2023/07/30 02:40:40;;;;;;;16.00;4.07;;;;;;;13.11;100.00;100865.56;4940402;29;20527;-93
2023/07/30 02:43:05;;;;;;;19.30;4.07;;;;;;;13.26;100.00;100862.84;4938202;29;20027;-94
2023/07/30 02:45:31;;;;;;;17.97;4.43;;;;;;;13.27;100.00;100869.03;4940559;29;20296;-95
2023/07/30 02:47:57;;;;;;;16.08;4.35;;;;;;;13.40;100.00;100878.41;4942390;29;20084;-93
2023/07/30 02:50:22;;;;;;;12.63;3.80;;;;;;;13.47;100.00;100878.94;4944148;29;20531;-93
2023/07/30 02:52:47;;;;;;;17.63;4.57;;;;;;;13.56;100.00;100876.47;4951487;29;20016;-94
2023/07/30 02:55:13;;;;;;;13.53;4.27;;;;;;;13.61;100.00;100876.47;4954537;29;20376;-93
2023/07/30 02:57:38;;;;;;;13.13;4.30;;;;;;;13.63;100.00;100877.00;4951283;29;20043;-92
2023/07/30 03:00:04;;;;;;;11.40;3.90;;;;;;;13.72;100.00;100890.69;4958908;29;20035;-94
2023/07/30 03:02:30;;;;;;;15.50;4.30;;;;;;;13.75;100.00;100890.13;4948709;29;20042;-92
2023/07/30 03:04:55;;;;;;;21.00;4.93;;;;;;;13.80;100.00;100891.97;4942488;29;20023;-93
2023/07/30 03:07:21;;;;;;;17.17;4.37;;;;;;;13.75;100.00;100885.53;4939095;29;20051;-93
2023/07/30 03:09:46;;;;;;;15.10;4.60;;;;;;;13.69;100.00;100873.19;4938689;29;20372;-93
2023/07/30 03:12:11;;;;;;;15.43;4.70;;;;;;;13.87;100.00;100889.78;4939814;29;20067;-94
2023/07/30 03:14:37;;;;;;;13.67;4.27;;;;;;;13.89;100.00;100895.69;4939373;29;20083;-93
2023/07/30 03:17:04;;;;;;;13.73;4.57;;;;;;;13.97;100.00;100892.41;4937144;29;20107;-94
2023/07/30 03:19:30;;;;;;;17.35;5.40;;;;;;;13.99;100.00;100886.75;4938945;29;20042;-94
2023/07/30 03:21:55;;;;;;;11.27;4.57;;;;;;;14.00;100.00;100889.16;4939287;29;20102;-95
2023/07/30 03:24:20;;;;;;;18.50;5.30;;;;;;;13.93;100.00;100869.81;4937302;28;20419;-94
2023/07/30 03:26:46;;;;;;;22.20;4.97;;;;;;;13.99;100.00;100876.78;4938811;29;20495;-94
2023/07/30 03:29:11;;;;;;;12.50;4.57;;;;;;;14.09;100.00;100894.75;4938337;29;20157;-94
2023/07/30 03:31:36;;;;;;;13.17;4.53;;;;;;;14.08;100.00;100880.47;4938977;29;20027;-93
2023/07/30 03:34:01;;;;;;;17.97;5.20;;;;;;;13.99;100.00;100870.56;4938286;29;20031;-94
2023/07/30 03:36:27;;;;;;;21.23;5.27;;;;;;;14.05;100.00;100875.66;4937884;29;20278;-94
2023/07/30 03:38:52;;;;;;;11.13;4.23;;;;;;;14.16;100.00;100891.75;4937631;29;20050;-94
2023/07/30 03:41:17;;;;;;;15.70;4.10;;;;;;;14.22;100.00;100893.34;4937056;29;20035;-94
2023/07/30 03:43:43;;;;;;;15.60;4.03;;;;;;;14.22;100.00;100896.03;4938323;29;20038;-95
2023/07/30 03:46:09;;;;;;;17.43;4.50;;;;;;;14.14;100.00;100886.66;4936367;29;20024;-93
2023/07/30 03:48:35;;;;;;;14.75;4.13;;;;;;;14.20;100.00;100898.19;4938343;29;20201;-94
2023/07/30 03:51:00;;;;;;;12.40;3.77;;;;;;;14.24;100.00;100901.94;4938796;29;20035;-95
2023/07/30 03:53:25;;;;;;;14.60;4.20;;;;;;;14.17;100.00;100902.25;4937945;29;20287;-94
2023/07/30 03:55:51;;;;;;;16.37;4.23;;;;;;;14.14;100.00;100888.53;4938487;29;20038;-94
2023/07/30 03:58:16;;;;;;;15.37;3.73;;;;;;;14.23;100.00;100916.50;4938507;29;20042;-93
2023/07/30 04:00:42;;;;;;;17.40;3.95;;;;;;;14.29;100.00;100909.97;4937372;29;20031;-94
2023/07/30 04:03:07;;;;;;;16.07;4.03;;;;;;;14.29;100.00;100923.47;4938215;29;20099;-95
2023/07/30 04:05:32;;;;;;;24.50;4.47;;;;;;;14.32;100.00;100917.50;4939198;29;20526;-94
2023/07/30 04:07:58;;;;;;;18.97;4.40;;;;;;;14.27;100.00;100908.66;4938192;29;20028;-95
2023/07/30 04:10:23;;;;;;;23.17;5.22;;;;;;;14.15;100.00;100892.84;4937911;29;20019;-94
2023/07/30 04:12:53;;;;;;;18.83;4.53;;;;;;;14.11;100.00;100878.31;4946857;29;20023;-96
2023/07/30 04:15:19;;;;;;;19.25;4.70;;;;;;;14.41;100.00;100923.09;4957356;29;20008;-96
2023/07/30 04:17:47;;;;;;;18.92;5.15;;;;;;;14.43;100.00;100917.41;4948287;29;20022;-96
2023/07/30 04:20:13;;;;;;;17.85;4.00;;;;;;;14.19;100.00;100886.59;4940426;29;20087;-96
2023/07/30 04:22:41;;;;;;;13.77;4.63;;;;;;;14.14;100.00;100870.50;4917855;29;20036;-96
2023/07/30 04:25:10;;;;;;;20.47;4.80;;;;;;;14.35;100.00;100903.47;4931239;29;20339;-96
2023/07/30 04:27:38;;;;;;;17.58;4.50;;;;;;;14.20;100.00;100874.75;4944606;29;20023;-96
2023/07/30 04:30:07;;;;;;;22.58;4.88;;;;;;;14.52;100.00;100919.22;4928415;29;20046;-96
2023/07/30 04:32:33;;;;;;;15.65;4.32;;;;;;;14.40;100.00;100905.31;4944333;29;20029;-96
2023/07/30 04:35:00;;;;;;;19.35;4.85;;;;;;;14.51;100.00;100911.44;4944717;29;20027;-96
2023/07/30 04:37:26;;;;;;;19.55;5.22;;;;;;;14.65;100.00;100927.78;4945972;29;20023;-96
2023/07/30 04:39:51;;;;;;;16.07;4.63;;;;;;;14.48;100.00;100901.22;4948874;28;20043;-96
2023/07/30 04:42:16;;;;;;;22.13;5.28;;;;;;;14.55;100.00;100893.63;4948356;29;20460;-95
2023/07/30 04:44:44;;;;;;;16.80;5.07;;;;;;;14.74;100.00;100919.91;4941106;28;20031;-96
2023/07/30 04:47:09;;;;;;;15.40;5.28;;;;;;;14.67;100.00;100893.25;4940856;29;20083;-96
2023/07/30 04:49:39;;;;;;;18.10;5.10;;;;;;;14.92;100.00;100934.56;4939723;29;20464;-95
2023/07/30 04:52:07;;;;;;;22.83;5.55;;;;;;;15.00;100.00;100928.56;4941210;29;20118;-96
2023/07/30 04:54:35;;;;;;;13.82;4.50;;;;;;;14.80;100.00;100876.41;4943241;28;20091;-96
2023/07/30 04:57:02;;;;;;;16.08;4.68;;;;;;;15.04;100.00;100899.94;4942430;29;20019;-96
2023/07/30 04:59:28;;;;;;;19.77;5.15;;;;;;;14.91;100.00;100881.69;4946467;29;20028;-96
2023/07/30 05:01:55;;;;;;;21.47;5.60;;;;;;;14.94;100.00;100886.53;4944546;29;20034;-95
2023/07/30 05:04:21;;;;;;;14.68;5.18;;;;;;;14.99;100.00;100903.47;4944346;29;20024;-96
2023/07/30 05:06:46;;;;;;;20.83;5.82;;;;;;;15.29;100.00;100930.41;4941368;28;20091;-96
2023/07/30 05:09:13;;;;;;;19.37;5.37;;;;;;;15.18;100.00;100910.81;4941491;29;20502;-95
2023/07/30 05:11:39;;;;;;;15.00;5.35;;;;;;;15.23;100.00;100916.19;4941777;29;20020;-96
2023/07/30 05:14:05;;;;;;;19.77;5.45;;;;;;;15.44;100.00;100948.34;4941547;29;20543;-96
2023/07/30 05:16:31;;;;;;;20.23;5.47;;;;;;;15.37;100.00;100920.88;4942323;29;20035;-96
2023/07/30 05:18:59;;;;;;;22.55;6.43;;;;;;;15.27;100.00;100919.09;4942344;29;20032;-96
2023/07/30 05:21:26;;;;;;;21.58;5.90;;;;;;;15.47;100.00;100953.19;4940073;29;20038;-96
2023/07/30 05:23:52;;;;;;;20.17;5.47;;;;;;;15.24;100.00;100912.38;4941873;29;20423;-96
2023/07/30 05:26:18;;;;;;;20.10;6.30;;;;;;;15.34;100.00;100934.97;4926875;29;20036;-96
2023/07/30 05:28:43;;;;;;;25.35;6.40;;;;;;;15.46;100.00;100951.56;4942218;29;20039;-96
2023/07/30 05:31:09;;;;;;;20.67;5.50;;;;;;;15.40;100.00;100936.50;4941542;29;20538;-96
2023/07/30 05:33:34;;;;;;;20.25;5.30;;;;;;;15.43;100.00;100946.72;4948652;29;20024;-96
2023/07/30 05:36:00;;;;;;;22.07;6.20;;;;;;;15.41;100.00;100932.72;4946529;28;20035;-96
2023/07/30 05:38:26;;;;;;;17.88;5.47;;;;;;;15.58;100.00;100962.75;4943918;29;20028;-96
2023/07/30 05:40:52;;;;;;;25.33;5.20;;;;;;;15.60;100.00;100951.69;4954117;29;20031;-96
2023/07/30 05:43:18;;;;;;;23.33;5.30;;;;;;;15.54;100.00;100925.81;4949949;29;20182;-96
2023/07/30 05:45:46;;;;;;;15.87;5.37;;;;;;;15.52;100.00;100923.38;4942444;29;20481;-96
2023/07/30 05:48:11;;;;;;;25.52;6.20;;;;;;;15.49;100.00;100907.78;4942210;29;20052;-96
2023/07/30 05:50:37;;;;;;;21.20;5.53;;;;;;;15.72;100.00;100933.16;4944910;29;20428;-96
2023/07/30 05:53:02;;;;;;;23.75;5.53;;;;;;;15.80;100.00;100933.59;4942748;29;20024;-96
2023/07/30 05:55:39;;;;;;;18.00;6.00;;;;;;;15.92;100.00;100950.22;4941229;29;20391;-95
2023/07/30 05:58:06;;;;;;;24.35;6.20;;;;;;;15.69;100.00;100914.03;4942429;29;20027;-96
2023/07/30 06:00:32;;;;;;;22.27;5.88;;;;;;;15.67;100.00;100908.09;4944462;28;20016;-96
2023/07/30 06:02:57;;;;;;;15.23;5.13;;;;;;;16.00;100.00;100949.56;4944391;29;20028;-96
2023/07/30 06:05:28;;;;;;;25.15;5.65;;;;;;;16.21;100.00;100960.09;4944891;29;20264;-96
2023/07/30 06:07:54;;;;;;;23.83;5.47;;;;;;;15.99;100.00;100920.91;4943664;28;20035;-95
2023/07/30 06:10:21;;;;;;;18.97;5.40;;;;;;;16.32;100.00;100960.72;4943936;29;20280;-96
2023/07/30 06:12:48;;;;;;;19.40;4.95;;;;;;;16.31;100.00;100942.91;4944391;29;20084;-96
2023/07/30 06:23:25;;;;;;;23.13;5.40;;;;;;;16.72;100.00;100968.50;4946108;29;20051;-96
2023/07/30 06:25:54;;;;;;;22.92;5.05;;;;;;;16.76;100.00;100970.34;4945442;29;20040;-96
2023/07/30 06:28:20;;;;;;;28.10;5.37;;;;;;;16.47;100.00;100919.94;4929455;29;20419;-95
2023/07/30 06:30:47;;;;;;;19.30;4.93;;;;;;;16.82;100.00;100971.03;4924276;29;20284;-94
2023/07/30 06:33:13;;;;;;;19.33;5.07;;;;;;;16.78;100.00;100957.31;4892280;29;20032;-96
2023/07/30 06:35:39;;;;;;;23.10;5.20;;;;;;;16.70;100.00;100930.13;4921104;29;20529;-95
2023/07/30 06:38:08;;;;;;;24.13;5.63;;;;;;;16.78;100.00;100943.78;4925453;29;20299;-96
2023/07/30 06:40:36;;;;;;;21.50;5.22;;;;;;;16.79;100.00;100953.50;4929175;29;20480;-96
2023/07/30 06:43:02;;;;;;;23.10;5.05;;;;;;;16.94;100.00;100971.38;4910632;29;20616;-96
2023/07/30 06:45:28;;;;;;;18.13;4.63;;;;;;;16.72;100.00;100934.16;4924939;29;20036;-96
2023/07/30 06:47:53;;;;;;;23.23;4.95;;;;;;;16.89;100.00;100932.78;4920923;29;20484;-96
2023/07/30 06:50:19;;;;;;;25.07;5.47;;;;;;;17.10;100.00;100946.75;4926242;29;20024;-96
2023/07/30 06:52:46;;;;;;;20.75;4.82;;;;;;;17.22;100.00;100933.56;4925407;29;20028;-96
2023/07/30 06:55:11;;;;;;;17.95;4.90;;;;;;;17.65;100.00;100964.94;4940344;29;20063;-96
2023/07/30 06:57:38;;;;;;;19.43;4.20;;;;;;;17.36;100.00;100917.28;4929757;29;20028;-96
2023/07/30 07:00:06;;;;;;;16.27;3.53;;;;;;;17.69;100.00;100984.09;4929957;29;20068;-96
2023/07/30 07:02:32;;;;;;;24.17;4.53;;;;;;;17.34;100.00;100941.19;4938571;29;20024;-96
2023/07/30 07:04:59;;;;;;;17.75;4.07;;;;;;;17.40;100.00;100937.25;4923350;29;20107;-96
2023/07/30 07:07:25;;;;;;;17.70;4.00;;;;;;;17.78;100.00;100987.72;4923238;29;20028;-96
2023/07/30 07:09:50;;;;;;;18.13;4.50;;;;;;;17.46;100.00;100939.88;4921705;29;20284;-95
2023/07/30 07:20:03;;;;;;;14.95;3.70;;;;;;;17.73;100.00;100985.09;5698254;23;20059;-96
2023/07/30 07:22:29;;;;;;;20.70;4.10;;;;;;;17.93;100.00;100989.28;4927089;29;20103;-96
2023/07/30 07:24:54;;;;;;;22.07;3.70;;;;;;;18.34;100.00;100995.78;4942025;28;20944;-96
2023/07/30 07:27:26;;;;;;;20.13;3.83;;;;;;;18.68;100.00;100985.47;4942446;29;20474;-96
2023/07/30 07:30:11;;;;;;;16.77;3.40;;;;;;;18.71;100.00;100980.25;4956535;29;20015;-96
2023/07/30 07:32:38;;;;;;;24.95;4.18;;;;;;;18.77;100.00;100970.06;4951278;29;20380;-96
2023/07/30 07:35:22;;;;;;;18.25;3.55;;;;;;;19.16;100.00;100992.16;4953044;29;20047;-96
2023/07/30 07:37:48;;;;;;;18.40;3.90;;;;;;;19.65;100.00;101001.16;4953347;29;20028;-96
2023/07/30 07:40:14;;;;;;;18.42;3.53;;;;;;;20.27;100.00;100999.38;4944695;29;20087;-96
2023/07/30 07:42:40;;;;;;;21.70;3.67;;;;;;;20.59;99.67;100963.81;4943026;29;20055;-96
2023/07/30 07:45:07;;;;;;;14.93;3.33;;;;;;;20.98;99.17;100969.34;4945538;29;20048;-96
2023/07/30 07:47:36;;;;;;;18.92;3.55;;;;;;;21.05;95.46;100999.63;4944986;29;20094;-96
2023/07/30 07:50:02;;;;;;;14.48;3.00;;;;;;;20.47;95.37;101004.47;4946605;29;20067;-96
2023/07/30 07:52:34;;;;;;;23.27;4.00;;;;;;;19.70;97.37;100964.88;4949887;29;20008;-96
2023/07/30 07:55:04;;;;;;;13.32;3.20;;;;;;;19.28;100.00;100962.50;4942290;29;20085;-96
2023/07/30 07:57:32;;;;;;;18.17;3.67;;;;;;;19.45;100.00;100988.13;4943954;29;20031;-96
2023/07/30 07:59:57;;;;;;;13.00;2.88;;;;;;;19.88;100.00;101011.16;4943753;29;20064;-96
2023/07/30 08:02:25;;;;;;;19.30;3.85;;;;;;;20.20;99.20;101009.13;4949876;29;20031;-96
2023/07/30 08:04:56;;;;;;;23.27;3.97;;;;;;;20.44;97.81;101005.94;4947753;29;20028;-96
2023/07/30 08:07:22;;;;;;;19.45;3.50;;;;;;;20.15;96.02;100966.56;4929655;29;20035;-96
2023/07/30 08:09:55;;;;;;;18.20;3.40;;;;;;;20.36;96.87;100993.94;4942765;29;20028;-96
2023/07/30 08:12:26;;;;;;;21.35;3.17;;;;;;;20.45;93.66;100991.19;4948316;29;20043;-96
2023/07/30 08:14:53;;;;;;;21.05;3.30;;;;;;;20.30;92.19;100980.81;4954036;29;20043;-96
2023/07/30 08:17:20;;;;;;;13.55;3.00;;;;;;;20.36;92.66;100991.22;4952902;29;20078;-96
2023/07/30 08:19:52;;;;;;;20.43;3.03;;;;;;;20.36;94.20;100991.22;4947976;29;20032;-96
2023/07/30 08:22:17;;;;;;;16.60;3.63;;;;;;;20.54;92.85;101021.13;4960259;29;20267;-96
2023/07/30 08:24:43;;;;;;;17.85;3.10;;;;;;;20.23;93.06;101019.38;4949894;29;20034;-95
2023/07/30 08:27:09;;;;;;;13.77;3.53;;;;;;;20.29;92.93;101009.91;4927970;29;20058;-96
2023/07/30 08:29:36;;;;;;;19.17;3.38;;;;;;;20.25;92.19;100995.38;4945147;29;20024;-95
2023/07/30 08:32:04;;;;;;;18.77;3.30;;;;;;;19.98;94.15;101008.13;4942882;29;20031;-96
2023/07/30 08:34:30;;;;;;;16.05;3.20;;;;;;;19.64;94.89;100983.22;4944373;29;20070;-96
2023/07/30 08:36:59;;;;;;;16.08;3.30;;;;;;;19.71;95.19;100980.06;4927599;29;20055;-96
2023/07/30 08:39:27;;;;;;;18.98;3.22;;;;;;;20.12;95.85;101025.09;4943321;29;20024;-96
2023/07/30 08:41:52;;;;;;;14.60;2.65;;;;;;;20.09;94.96;101025.75;4942677;29;20066;-96
2023/07/30 08:44:21;;;;;;;21.60;3.10;;;;;;;19.82;94.70;100980.56;4942937;29;20032;-96
2023/07/30 08:46:47;;;;;;;15.98;2.75;;;;;;;20.26;95.96;101029.63;4945324;28;20032;-96
2023/07/30 08:49:15;;;;;;;14.07;2.90;;;;;;;20.09;93.32;101003.97;4949753;29;20499;-96
2023/07/30 08:51:45;;;;;;;14.55;3.00;;;;;;;20.35;90.99;100991.53;4942629;28;20039;-96
2023/07/30 08:54:23;;;;;;;14.55;3.15;;;;;;;20.73;91.05;101026.22;4943806;29;20038;-96
2023/07/30 08:56:49;;;;;;;19.35;3.00;;;;;;;20.05;91.33;100984.00;4928288;29;20039;-96
2023/07/30 08:59:17;;;;;;;17.70;3.10;;;;;;;19.70;93.44;101013.00;4946057;29;20024;-96
2023/07/30 09:01:51;;;;;;;12.05;3.10;;;;;;;19.11;100.00;100989.56;4949946;29;20042;-96
2023/07/30 09:04:22;;;;;;;18.17;3.67;;;;;;;18.49;100.00;100997.31;4959270;29;20019;-96
2023/07/30 09:06:50;;;;;;;15.00;3.25;;;;;;;18.34;100.00;101003.09;4958828;29;20019;-96
2023/07/30 09:09:16;;;;;;;16.70;3.13;;;;;;;18.36;100.00;100973.75;4959479;29;20020;-96
2023/07/30 09:11:42;;;;;;;11.23;3.13;;;;;;;18.86;100.00;101003.47;4959423;29;20291;-96
2023/07/30 09:14:09;;;;;;;13.30;2.95;;;;;;;19.18;100.00;100976.38;4958579;29;20032;-96
2023/07/30 09:16:34;;;;;;;15.15;3.25;;;;;;;19.49;100.00;100987.19;4958039;29;20023;-96
2023/07/30 09:19:02;;;;;;;11.55;2.75;;;;;;;19.90;100.00;100996.13;4956236;29;20187;-96
2023/07/30 09:21:32;;;;;;;14.83;3.23;;;;;;;20.26;99.98;101029.63;4941311;29;20028;-96
2023/07/30 09:24:00;;;;;;;10.57;3.03;;;;;;;20.38;98.05;100999.03;4938516;29;20319;-96
2023/07/30 09:26:25;;;;;;;16.80;3.20;;;;;;;20.64;95.79;100998.22;4939726;29;20439;-95
2023/07/30 09:28:51;;;;;;;10.45;2.60;;;;;;;20.91;89.83;100999.03;4939598;29;20034;-96
2023/07/30 09:31:16;;;;;;;7.53;2.63;;;;;;;20.81;90.20;100962.03;4940380;29;20464;-95
2023/07/30 09:33:44;;;;;;;16.53;2.80;;;;;;;20.82;87.67;100966.34;4942796;29;20047;-96
2023/07/30 09:36:10;;;;;;;12.52;2.67;;;;;;;21.55;86.00;101014.47;4957259;29;20047;-96
2023/07/30 09:38:41;;;;;;;16.58;3.00;;;;;;;21.91;81.53;101004.22;4945133;29;20032;-96
2023/07/30 09:41:07;;;;;;;9.77;2.85;;;;;;;22.06;77.14;101002.84;4946523;28;20246;-96
2023/07/30 09:43:32;;;;;;;11.18;2.63;;;;;;;22.24;76.45;101020.69;4952188;29;20082;-96
2023/07/30 09:46:03;;;;;;;14.57;2.70;;;;;;;22.19;73.98;100996.31;4941022;29;20028;-96
2023/07/30 09:48:32;;;;;;;11.20;2.78;;;;;;;22.32;74.33;101016.28;4942491;29;20052;-95
2023/07/30 09:51:08;;;;;;;10.02;2.90;;;;;;;22.39;73.85;101004.81;4941724;29;20043;-95
2023/07/30 09:53:34;;;;;;;10.55;2.38;;;;;;;22.36;73.09;101019.94;4956411;29;20031;-95
2023/07/30 09:56:04;;;;;;;12.23;2.72;;;;;;;22.05;71.29;101012.94;4957711;29;20075;-96
2023/07/30 09:58:30;;;;;;;8.47;2.20;;;;;;;21.92;75.16;100987.50;4957415;29;20034;-95
2023/07/30 10:00:59;;;;;;;14.18;2.60;;;;;;;22.12;74.94;101023.31;4954008;29;20028;-95
2023/07/30 10:03:26;;;;;;;9.90;2.50;;;;;;;22.70;72.51;101028.19;4958609;29;20072;-96
2023/07/30 10:06:00;;;;;;;9.05;2.50;;;;;;;22.65;70.53;100990.16;4956536;29;20086;-96
2023/07/30 10:08:31;;;;;;;7.72;2.25;;;;;;;22.58;70.88;101007.09;4956234;29;20097;-96
2023/07/30 10:10:59;;;;;;;10.13;2.50;;;;;;;22.31;70.74;101009.22;4954325;29;20063;-94
2023/07/30 10:13:25;;;;;;;12.63;2.78;;;;;;;22.16;71.54;101027.00;4955789;29;20091;-94
2023/07/30 10:15:52;;;;;;;6.78;2.15;;;;;;;21.82;73.24;101033.50;4943738;29;20023;-94
2023/07/30 10:18:17;;;;;;;10.80;2.30;;;;;;;21.29;74.59;101020.84;4943296;29;20020;-94
2023/07/30 10:20:54;;;;;;;11.17;2.30;;;;;;;21.35;77.68;101020.69;4938532;28;20351;-94
2023/07/30 10:23:20;;;;;;;8.85;2.13;;;;;;;21.25;74.72;101025.34;4938456;29;20495;-94
2023/07/30 10:31:24;;;;;;;10.65;2.20;;;;;;;22.24;73.63;101001.59;5922972;23;20018;-93
2023/07/30 10:33:53;;;;;;;7.00;2.15;;;;;;;22.88;68.71;101044.41;4947805;29;20038;-94
2023/07/30 10:36:48;;;;;;;8.50;2.03;;;;;;;22.92;71.25;101059.00;4946350;29;20091;-93
2023/07/30 10:39:16;;;;;;;10.50;2.40;;;;;;;22.28;70.05;101050.00;4942611;29;20044;-94
2023/07/30 10:41:48;;;;;;;9.80;2.50;;;;;;;22.04;71.44;101063.19;4943253;29;20058;-93
2023/07/30 10:44:31;;;;;;;8.80;2.20;;;;;;;21.54;71.74;101069.34;4944192;29;20074;-95
2023/07/30 10:46:58;;;;;;;9.50;2.07;;;;;;;21.00;75.67;101076.06;4943152;29;20032;-95
2023/07/30 10:49:24;;;;;;;7.73;2.03;;;;;;;20.66;80.88;101073.00;4940923;29;20310;-93
2023/07/30 10:51:52;;;;;;;6.05;2.13;;;;;;;20.63;84.38;101075.56;4939306;28;20032;-94
2023/07/30 10:54:18;;;;;;;8.63;2.30;;;;;;;20.64;83.40;101083.41;4940795;29;20047;-93
2023/07/30 10:56:44;;;;;;;8.60;2.27;;;;;;;21.01;84.07;101053.94;4954034;29;20209;-94
2023/07/30 10:59:10;;;;;;;10.10;2.58;;;;;;;21.44;78.64;101056.88;4946122;29;20028;-95
2023/07/30 11:01:43;;;;;;;7.10;2.08;;;;;;;21.55;79.55;101030.06;4944392;28;20055;-94
2023/07/30 11:04:18;;;;;;;8.48;2.45;;;;;;;21.84;75.84;101063.94;4953624;29;20032;-94
2023/07/30 11:06:49;;;;;;;8.00;2.05;;;;;;;21.81;75.01;101067.34;4938523;29;20032;-94
2023/07/30 11:09:25;;;;;;;6.53;2.20;;;;;;;21.72;78.62;101072.84;4938677;29;20035;-94
2023/07/30 11:11:52;;;;;;;9.40;2.45;;;;;;;21.05;80.55;101056.84;4939061;29;20036;-94
2023/07/30 11:14:25;;;;;;;7.50;2.17;;;;;;;20.17;88.38;101059.53;4940147;29;20036;-94
2023/07/30 11:17:00;;;;;;;8.88;2.47;;;;;;;19.45;94.81;101039.75;4937770;29;20062;-94
2023/07/30 11:19:27;;;;;;;7.23;2.40;;;;;;;19.33;98.23;101072.97;4939196;29;20028;-94
2023/07/30 11:21:54;;;;;;;10.03;2.40;;;;;;;19.22;99.33;101064.28;4939346;29;20330;-95
2023/07/30 11:24:21;;;;;;;8.60;2.40;;;;;;;19.12;95.29;101043.59;4938308;29;20028;-95
2023/07/30 11:26:58;;;;;;;7.38;2.00;;;;;;;19.34;94.65;101077.28;4939881;29;20031;-95
2023/07/30 11:29:23;;;;;;;10.30;2.33;;;;;;;19.44;94.60;101084.38;4940128;29;20027;-94
2023/07/30 11:31:49;;;;;;;9.98;2.15;;;;;;;19.74;93.27;101082.72;4939135;29;20103;-94
2023/07/30 11:34:14;;;;;;;6.70;2.17;;;;;;;20.08;91.91;101091.34;4939496;29;20024;-95
2023/07/30 11:36:41;;;;;;;6.13;2.23;;;;;;;20.67;86.37;101088.22;4938438;29;20075;-94